createdAt,value
2024-02-27T00:00:49.504Z,6.23
2024-02-27T00:03:52.024Z,6.23
2024-02-27T00:06:56.283Z,6.17
2024-02-27T00:10:13.182Z,6.10
2024-02-27T00:13:18.183Z,6.13
2024-02-27T00:16:23.154Z,6.21
2024-02-27T00:19:29.539Z,6.21
2024-02-27T00:22:33.498Z,6.11
2024-02-27T00:25:40.458Z,6.00
2024-02-27T00:28:50.958Z,5.86
2024-02-27T00:31:55.364Z,5.79
2024-02-27T00:35:00.681Z,5.59
2024-02-27T00:38:06.812Z,5.58
2024-02-27T00:41:12.144Z,5.54
2024-02-27T00:44:15.879Z,5.58
2024-02-27T00:47:21.654Z,5.62
2024-02-27T00:50:26.166Z,5.62
2024-02-27T00:53:32.706Z,5.63
2024-02-27T00:56:38.158Z,5.65
2024-02-27T00:59:44.800Z,5.61
2024-02-27T01:02:49.054Z,5.69
2024-02-27T01:05:53.706Z,5.70
2024-02-27T01:08:56.442Z,5.76
2024-02-27T01:12:13.865Z,5.88
2024-02-27T01:15:19.516Z,5.92
2024-02-27T01:18:22.102Z,5.99
2024-02-27T01:21:28.000Z,5.96
2024-02-27T01:24:31.364Z,5.92
2024-02-27T01:27:35.014Z,5.90
2024-02-27T01:30:41.268Z,5.92
2024-02-27T01:33:49.648Z,5.91
2024-02-27T01:36:59.339Z,5.90
2024-02-27T01:40:10.838Z,5.83
2024-02-27T01:43:34.428Z,5.78
2024-02-27T01:46:38.665Z,5.84
2024-02-27T01:49:46.085Z,5.91
2024-02-27T01:52:55.661Z,5.85
2024-02-27T01:59:26.920Z,5.96
2024-02-27T02:02:36.853Z,5.99
2024-02-27T02:05:41.772Z,5.96
2024-02-27T02:08:58.574Z,5.83
2024-02-27T02:12:02.044Z,6.03
2024-02-27T02:15:05.442Z,5.98
2024-02-27T02:18:08.465Z,5.95
2024-02-27T02:21:13.362Z,5.89
2024-02-27T02:24:18.135Z,5.88
2024-02-27T02:27:20.838Z,5.79
2024-02-27T02:30:24.332Z,5.95
2024-02-27T02:33:29.851Z,6.00
2024-02-27T02:36:33.873Z,6.00
2024-02-27T02:39:37.500Z,5.90
2024-02-27T02:42:40.410Z,5.85
2024-02-27T02:45:44.472Z,5.97
2024-02-27T02:48:47.022Z,5.95
2024-02-27T02:51:49.458Z,5.84
2024-02-27T02:54:51.791Z,5.83
2024-02-27T02:57:54.178Z,5.89
2024-02-27T03:00:57.860Z,5.77
2024-02-27T03:04:00.320Z,5.92
2024-02-27T03:07:04.558Z,5.89
2024-02-27T03:10:07.935Z,5.81
2024-02-27T03:13:12.215Z,5.80
2024-02-27T03:16:22.841Z,5.82
2024-02-27T03:19:29.348Z,5.84
2024-02-27T03:22:36.427Z,5.76
2024-02-27T03:25:45.165Z,5.87
2024-02-27T03:28:48.590Z,5.90
2024-02-27T03:35:13.496Z,5.68
2024-02-27T03:38:20.204Z,5.52
2024-02-27T03:41:38.592Z,5.38
2024-02-27T03:44:48.724Z,5.31
2024-02-27T03:47:55.762Z,5.41
2024-02-27T03:50:59.411Z,5.39
2024-02-27T03:54:02.279Z,5.33
2024-02-27T03:57:06.228Z,5.25
2024-02-27T04:00:13.069Z,5.17
2024-02-27T04:03:19.113Z,5.13
2024-02-27T04:06:30.935Z,5.12
2024-02-27T04:09:34.914Z,5.29
2024-02-27T04:12:37.996Z,5.24
2024-02-27T04:15:43.963Z,5.16
2024-02-27T04:18:51.442Z,4.71
2024-02-27T04:21:53.979Z,5.09
2024-02-27T04:25:04.455Z,5.02
2024-02-27T04:28:10.323Z,5.03
2024-02-27T04:31:16.979Z,5.04
2024-02-27T04:34:27.856Z,4.98
2024-02-27T04:37:38.076Z,4.97
2024-02-27T04:40:45.027Z,4.93
2024-02-27T04:43:51.089Z,4.90
2024-02-27T04:46:56.575Z,4.95
2024-02-27T04:50:00.401Z,5.00
2024-02-27T04:53:03.415Z,5.01
2024-02-27T04:56:11.727Z,5.01
2024-02-27T04:59:23.584Z,5.03
2024-02-27T05:02:33.005Z,5.11
2024-02-27T05:05:41.085Z,5.11
2024-02-27T05:08:49.960Z,5.06
2024-02-27T05:11:57.127Z,4.93
2024-02-27T05:15:06.615Z,5.03
2024-02-27T05:18:10.385Z,5.03
2024-02-27T05:21:17.516Z,5.01
2024-02-27T05:24:24.547Z,5.00
2024-02-27T05:27:27.727Z,5.02
2024-02-27T05:30:32.435Z,5.05
2024-02-27T05:33:34.913Z,5.10
2024-02-27T05:36:39.375Z,5.12
2024-02-27T05:39:42.975Z,5.11
2024-02-27T05:42:48.080Z,5.06
2024-02-27T05:45:50.453Z,5.05
2024-02-27T05:48:57.569Z,5.09
2024-02-27T05:52:02.173Z,5.06
2024-02-27T05:55:06.850Z,5.05
2024-02-27T05:58:15.554Z,5.00
2024-02-27T06:01:24.345Z,5.09
2024-02-27T06:04:30.411Z,5.18
2024-02-27T06:07:35.119Z,5.26
2024-02-27T06:14:04.581Z,5.41
2024-02-27T06:17:12.456Z,5.30
2024-02-27T06:20:35.514Z,5.31
2024-02-27T06:23:39.060Z,5.40
2024-02-27T06:30:07.209Z,5.39
2024-02-27T06:33:15.929Z,5.33
2024-02-27T06:36:26.376Z,5.32
2024-02-27T06:39:31.674Z,5.31
2024-02-27T06:42:39.203Z,5.20
2024-02-27T06:45:44.761Z,5.18
2024-02-27T06:48:50.288Z,5.14
2024-02-27T06:51:58.636Z,5.23
2024-02-27T06:55:04.767Z,5.23
2024-02-27T06:58:08.874Z,5.28
2024-02-27T07:01:15.826Z,5.29
2024-02-27T07:04:23.606Z,5.27
2024-02-27T07:07:34.350Z,5.24
2024-02-27T07:11:12.199Z,5.40
2024-02-27T07:14:20.868Z,5.61
2024-02-27T07:17:28.295Z,5.74
2024-02-27T07:20:32.929Z,5.77
2024-02-27T07:23:35.771Z,5.81
2024-02-27T07:26:39.292Z,5.74
2024-02-27T07:29:42.011Z,5.79
2024-02-27T07:32:48.213Z,5.87
2024-02-27T07:35:54.766Z,5.88
2024-02-27T07:39:07.946Z,5.83
2024-02-27T07:42:10.563Z,5.80
2024-02-27T07:45:20.952Z,5.85
2024-02-27T07:48:25.805Z,5.75
2024-02-27T07:51:30.529Z,5.84
2024-02-27T07:54:36.816Z,5.90
2024-02-27T07:57:42.146Z,6.00
2024-02-27T08:00:50.064Z,6.09
2024-02-27T08:03:56.861Z,6.26
2024-02-27T08:07:05.593Z,6.38
2024-02-27T08:10:13.068Z,6.55
2024-02-27T08:13:23.970Z,6.63
2024-02-27T08:16:29.105Z,6.76
2024-02-27T08:19:37.190Z,6.84
2024-02-27T08:22:42.102Z,6.67
2024-02-27T08:25:48.683Z,6.51
2024-02-27T08:28:56.860Z,6.44
2024-02-27T08:32:04.152Z,6.68
2024-02-27T08:35:07.584Z,6.77
2024-02-27T08:38:14.384Z,6.85
2024-02-27T08:41:24.532Z,6.81
2024-02-27T08:44:28.297Z,6.86
2024-02-27T08:47:41.606Z,6.96
2024-02-27T08:50:49.845Z,7.04
2024-02-27T08:53:55.488Z,7.08
2024-02-27T08:56:59.145Z,7.11
2024-02-27T09:00:07.824Z,7.02
2024-02-27T09:03:15.407Z,7.14
2024-02-27T09:06:24.247Z,7.11
2024-02-27T09:09:36.643Z,7.00
2024-02-27T09:12:46.234Z,7.20
2024-02-27T09:15:50.608Z,7.30
2024-02-27T09:18:56.722Z,7.41
2024-02-27T09:22:03.051Z,7.49
2024-02-27T09:25:15.283Z,7.48
2024-02-27T09:28:32.758Z,7.53
2024-02-27T09:31:38.283Z,7.60
2024-02-27T09:34:46.131Z,7.62
2024-02-27T09:37:49.925Z,7.61
2024-02-27T09:40:58.590Z,7.62
2024-02-27T09:44:03.501Z,7.63
2024-02-27T09:47:11.082Z,7.59
2024-02-27T09:50:20.386Z,7.46
2024-02-27T09:53:27.609Z,7.40
2024-02-27T09:56:32.766Z,7.52
2024-02-27T09:59:43.208Z,7.69
2024-02-27T10:06:15.551Z,7.92
2024-02-27T10:09:33.823Z,7.79
2024-02-27T10:12:41.884Z,7.96
2024-02-27T10:15:48.240Z,8.04
2024-02-27T10:18:51.931Z,8.00
2024-02-27T10:21:56.011Z,7.94
2024-02-27T10:25:08.425Z,7.95
2024-02-27T10:28:16.321Z,8.11
2024-02-27T10:31:29.657Z,8.19
2024-02-27T10:34:35.112Z,8.21
2024-02-27T10:37:47.975Z,8.24
2024-02-27T10:40:57.028Z,8.11
2024-02-27T10:44:07.553Z,8.12
2024-02-27T10:47:20.489Z,8.25
2024-02-27T10:50:25.548Z,8.11
2024-02-27T10:53:36.178Z,8.24
2024-02-27T10:56:43.592Z,8.41
2024-02-27T10:59:54.987Z,8.48
2024-02-27T11:03:01.806Z,8.36
2024-02-27T11:06:15.746Z,8.40
2024-02-27T11:09:44.530Z,8.59
2024-02-27T11:12:50.846Z,8.52
2024-02-27T11:16:00.868Z,8.61
2024-02-27T11:19:18.058Z,8.55
2024-02-27T11:22:24.636Z,8.63
2024-02-27T11:25:32.725Z,8.58
2024-02-27T11:28:42.297Z,7.98
2024-02-27T11:31:46.758Z,7.54
2024-02-27T11:34:59.195Z,7.48
2024-02-27T11:38:11.271Z,7.49
2024-02-27T11:41:37.725Z,7.39
2024-02-27T11:45:06.714Z,7.51
2024-02-27T11:48:21.008Z,7.68
2024-02-27T11:51:27.527Z,7.83
2024-02-27T11:54:38.264Z,7.81
2024-02-27T11:57:42.939Z,7.98
2024-02-27T12:00:52.003Z,8.02
2024-02-27T12:04:00.884Z,8.17
2024-02-27T12:07:04.095Z,8.24
2024-02-27T12:10:27.515Z,8.39
2024-02-27T12:13:30.199Z,8.45
2024-02-27T12:16:32.868Z,8.41
2024-02-27T12:19:36.834Z,8.49
2024-02-27T12:22:52.721Z,8.35
2024-02-27T12:25:55.369Z,8.27
2024-02-27T12:29:02.868Z,8.34
2024-02-27T12:32:10.432Z,8.30
2024-02-27T12:35:21.287Z,8.18
2024-02-27T12:38:42.030Z,8.16
2024-02-27T12:41:57.746Z,8.19
2024-02-27T12:45:00.926Z,7.96
2024-02-27T12:48:08.771Z,7.93
2024-02-27T12:51:17.996Z,7.79
2024-02-27T12:54:29.920Z,7.66
2024-02-27T12:57:36.586Z,7.41
2024-02-27T13:00:48.330Z,7.32
2024-02-27T13:03:55.091Z,7.52
2024-02-27T13:07:00.321Z,7.47
2024-02-27T13:10:03.409Z,7.55
2024-02-27T13:13:10.861Z,7.47
2024-02-27T13:16:15.415Z,7.50
2024-02-27T13:19:22.556Z,7.60
2024-02-27T13:22:28.623Z,7.41
2024-02-27T13:25:44.116Z,7.42
2024-02-27T13:28:52.073Z,7.12
2024-02-27T13:32:01.589Z,7.10
2024-02-27T13:35:07.209Z,6.95
2024-02-27T13:38:18.621Z,6.93
2024-02-27T13:41:23.995Z,7.03
2024-02-27T13:44:27.038Z,7.08
2024-02-27T13:47:33.059Z,7.12
2024-02-27T13:50:43.876Z,7.14
2024-02-27T13:53:48.973Z,7.07
2024-02-27T13:56:59.646Z,7.03
2024-02-27T14:00:14.002Z,6.89
2024-02-27T14:03:22.439Z,6.92
2024-02-27T14:09:57.625Z,6.86
2024-02-27T14:13:07.132Z,6.82
2024-02-27T14:16:16.386Z,6.84
2024-02-27T14:19:34.828Z,6.74
2024-02-27T14:22:42.495Z,6.78
2024-02-27T14:25:57.166Z,6.72
2024-02-27T14:32:28.430Z,6.49
2024-02-27T14:35:36.463Z,6.68
2024-02-27T14:42:08.849Z,6.49
2024-02-27T14:45:20.289Z,6.45
2024-02-27T14:48:29.859Z,6.39
2024-02-27T14:51:36.129Z,6.37
2024-02-27T14:54:43.111Z,6.38
2024-02-27T14:57:49.397Z,6.30
2024-02-27T15:00:54.622Z,6.24
2024-02-27T15:04:09.090Z,6.14
2024-02-27T15:07:16.286Z,6.11
2024-02-27T15:10:20.484Z,6.11
2024-02-27T15:13:37.238Z,6.05
2024-02-27T15:16:46.218Z,5.96
2024-02-27T15:20:02.272Z,6.13
2024-02-27T15:23:07.767Z,6.02
2024-02-27T15:26:17.037Z,5.96
2024-02-27T15:29:25.380Z,6.05
2024-02-27T15:32:32.962Z,6.20
2024-02-27T15:35:49.756Z,6.09
2024-02-27T15:39:09.679Z,6.02
2024-02-27T15:45:48.762Z,5.84
2024-02-27T15:48:55.207Z,5.77
2024-02-27T15:55:33.042Z,5.91
2024-02-27T16:02:00.800Z,5.75
2024-02-27T16:05:10.936Z,5.63
2024-02-27T16:08:18.143Z,5.68
2024-02-27T16:11:22.572Z,5.70
2024-02-27T16:14:25.533Z,5.67
2024-02-27T16:17:40.475Z,5.58
2024-02-27T16:20:46.062Z,5.59
2024-02-27T16:23:56.225Z,5.65
2024-02-27T16:27:08.653Z,5.62
2024-02-27T16:30:16.731Z,5.74
2024-02-27T16:33:22.253Z,5.78
2024-02-27T16:36:27.265Z,5.61
2024-02-27T16:39:35.145Z,5.51
2024-02-27T16:42:44.385Z,5.41
2024-02-27T16:45:51.302Z,5.29
2024-02-27T16:49:05.366Z,5.33
2024-02-27T16:52:07.830Z,5.40
2024-02-27T16:55:21.475Z,5.37
2024-02-27T16:58:29.249Z,5.27
2024-02-27T17:01:33.860Z,5.27
2024-02-27T17:04:39.727Z,5.08
2024-02-27T17:07:55.202Z,5.26
2024-02-27T17:11:01.154Z,5.33
2024-02-27T17:14:04.076Z,5.27
2024-02-27T17:17:10.950Z,5.24
2024-02-27T17:20:21.101Z,5.16
2024-02-27T17:23:27.099Z,5.15
2024-02-27T17:29:55.925Z,5.16
2024-02-27T17:33:01.433Z,5.13
2024-02-27T17:36:07.046Z,5.19
2024-02-27T17:39:11.988Z,5.11
2024-02-27T17:42:20.436Z,5.09
2024-02-27T17:45:24.414Z,5.13
2024-02-27T17:48:30.018Z,5.16
2024-02-27T17:51:38.162Z,5.16
2024-02-27T17:54:45.264Z,5.15
2024-02-27T17:57:49.043Z,5.05
2024-02-27T18:00:54.752Z,4.93
2024-02-27T18:04:02.679Z,4.91
2024-02-27T18:07:08.177Z,4.90
2024-02-27T18:10:26.205Z,4.86
2024-02-27T18:13:32.403Z,4.86
2024-02-27T18:16:41.981Z,4.84
2024-02-27T18:19:51.682Z,4.86
2024-02-27T18:22:57.413Z,4.83
2024-02-27T18:26:02.416Z,4.76
2024-02-27T18:29:07.645Z,4.80
2024-02-27T18:32:14.590Z,4.81
2024-02-27T18:35:20.557Z,4.84
2024-02-27T18:38:28.974Z,4.78
2024-02-27T18:41:44.190Z,4.83
2024-02-27T18:44:53.246Z,4.84
2024-02-27T18:47:56.921Z,4.83
2024-02-27T18:51:03.335Z,4.90
2024-02-27T18:54:10.559Z,4.89
2024-02-27T18:57:17.879Z,4.86
2024-02-27T19:00:21.946Z,4.95
2024-02-27T19:03:25.408Z,4.95
2024-02-27T19:06:28.558Z,4.93
2024-02-27T19:09:33.561Z,4.97
2024-02-27T19:12:39.279Z,4.97
2024-02-27T19:15:46.277Z,4.92
2024-02-27T19:18:54.323Z,4.97
2024-02-27T19:21:59.090Z,4.93
2024-02-27T19:28:28.704Z,4.97
2024-02-27T19:31:35.212Z,4.93
2024-02-27T19:34:37.563Z,4.90
2024-02-27T19:37:40.938Z,4.84
2024-02-27T19:40:56.810Z,4.87
2024-02-27T19:44:01.926Z,4.85
2024-02-27T19:50:22.164Z,4.83
2024-02-27T19:53:25.512Z,4.77
2024-02-27T19:56:27.958Z,4.78
2024-02-27T19:59:31.333Z,4.74
2024-02-27T20:02:46.781Z,4.81
2024-02-27T20:05:54.719Z,4.76
2024-02-27T20:09:07.475Z,4.72
2024-02-27T20:12:10.616Z,4.72
2024-02-27T20:15:17.802Z,4.70
2024-02-27T20:18:35.138Z,4.76
2024-02-27T20:21:40.240Z,4.71
2024-02-27T20:24:51.311Z,4.80
2024-02-27T20:27:58.651Z,4.73
2024-02-27T20:31:14.618Z,4.76
2024-02-27T20:34:26.580Z,4.66
2024-02-27T20:37:33.591Z,4.71
2024-02-27T20:40:38.068Z,4.77
2024-02-27T20:43:48.171Z,4.87
2024-02-27T20:46:53.276Z,4.83
2024-02-27T20:49:56.734Z,4.74
2024-02-27T20:53:00.823Z,4.67
2024-02-27T20:59:27.735Z,4.29
2024-02-27T21:02:32.907Z,4.30
2024-02-27T21:05:38.126Z,4.39
2024-02-27T21:08:52.121Z,4.49
2024-02-27T21:15:20.382Z,4.57
2024-02-27T21:18:30.163Z,4.68
2024-02-27T21:21:36.407Z,4.77
2024-02-27T21:24:46.956Z,4.78
2024-02-27T21:27:59.318Z,4.87
2024-02-27T21:31:12.021Z,4.91
2024-02-27T21:34:19.976Z,4.91
2024-02-27T21:37:37.995Z,4.96
2024-02-27T21:40:42.965Z,5.00
2024-02-27T21:43:50.076Z,5.00
2024-02-27T21:46:56.753Z,5.03
2024-02-27T21:49:59.978Z,5.00
2024-02-27T21:53:06.568Z,4.80
2024-02-27T21:56:08.960Z,4.73
2024-02-27T21:59:16.431Z,4.77
2024-02-27T22:02:25.559Z,4.76
2024-02-27T22:05:47.578Z,4.70
2024-02-27T22:09:01.067Z,4.60
2024-02-27T22:12:06.853Z,4.76
2024-02-27T22:15:13.815Z,4.76
2024-02-27T22:18:25.720Z,4.66
2024-02-27T22:21:34.332Z,4.62
2024-02-27T22:24:37.077Z,4.58
2024-02-27T22:27:41.434Z,4.55
2024-02-27T22:30:46.318Z,4.58
2024-02-27T22:33:50.256Z,4.59
2024-02-27T22:36:53.233Z,4.63
2024-02-27T22:39:56.148Z,4.57
2024-02-27T22:42:58.975Z,4.54
2024-02-27T22:46:01.423Z,4.49
2024-02-27T22:49:06.595Z,4.55
2024-02-27T22:52:12.652Z,4.58
2024-02-27T22:55:19.638Z,4.63
2024-02-27T22:58:30.258Z,4.56
2024-02-27T23:01:36.690Z,4.51
2024-02-27T23:04:51.926Z,4.46
2024-02-27T23:08:07.260Z,4.46
2024-02-27T23:11:17.146Z,4.49
2024-02-27T23:17:38.375Z,4.44
2024-02-27T23:20:52.066Z,4.42
2024-02-27T23:24:01.692Z,4.36
2024-02-27T23:27:14.174Z,4.30
2024-02-27T23:30:25.691Z,4.36
2024-02-27T23:33:32.800Z,4.43
2024-02-27T23:36:37.992Z,4.38
2024-02-27T23:39:58.257Z,4.51
2024-02-27T23:43:11.583Z,4.57
2024-02-27T23:46:17.103Z,4.55
2024-02-27T23:49:49.222Z,4.50
2024-02-27T23:52:53.971Z,4.53
2024-02-27T23:55:58.205Z,4.44
2024-02-27T23:59:02.379Z,4.30
